Time;durP1;ratioP1;P1;durP2;ratioP2;P2;SDS_P1;SDS_P2;PMS_P1;PMS_P2;Temp;Humidity;BMP_temperature;BMP_pressure;BME280_temperature;BME280_humidity;BME280_pressure;Samples;Min_cycle;Max_cycle;Signal;HPM_P1;HPM_P2
2022/03/04 00:00:00;;;;;;;23.42;15.77;;;;;;;3.51;58.28;101855.56;5011208;28;20546;-74
2022/03/04 00:02:26;;;;;;;26.33;16.27;;;;;;;3.47;57.94;101859.16;5006754;28;20030;-74
2022/03/04 00:04:53;;;;;;;22.63;15.73;;;;;;;3.41;58.00;101859.34;5011110;28;20029;-74
2022/03/04 00:07:18;;;;;;;20.42;15.82;;;;;;;3.36;58.91;101861.22;5011285;28;20506;-72
2022/03/04 00:09:43;;;;;;;24.40;16.02;;;;;;;3.34;58.21;101868.22;5025886;28;20040;-74
2022/03/04 00:12:09;;;;;;;26.23;16.65;;;;;;;3.30;58.93;101866.59;5008927;28;20061;-73
2022/03/04 00:14:34;;;;;;;23.65;16.38;;;;;;;3.27;59.60;101871.88;5011284;28;20029;-74
2022/03/04 00:16:59;;;;;;;26.58;16.67;;;;;;;3.24;59.15;101866.75;5010517;28;20058;-74
2022/03/04 00:19:25;;;;;;;22.60;16.08;;;;;;;3.21;58.81;101872.06;5004924;28;20113;-74
2022/03/04 00:21:51;;;;;;;24.50;17.05;;;;;;;3.14;59.88;101874.78;5010312;28;20080;-73
2022/03/04 00:24:19;;;;;;;22.38;16.73;;;;;;;3.12;59.58;101884.38;5025893;28;20034;-74
2022/03/04 00:26:45;;;;;;;25.05;16.30;;;;;;;3.08;59.86;101885.34;5010375;28;20371;-73
2022/03/04 00:29:11;;;;;;;23.17;16.23;;;;;;;3.06;60.37;101883.69;5010665;28;20108;-73
2022/03/04 00:31:37;;;;;;;23.35;16.33;;;;;;;3.03;59.72;101879.44;5010757;28;20101;-74
2022/03/04 00:34:07;;;;;;;25.15;16.70;;;;;;;3.00;59.99;101882.09;5010090;28;20113;-74
2022/03/04 00:36:37;;;;;;;24.05;16.85;;;;;;;2.99;60.69;101883.00;5005291;28;20125;-73
2022/03/04 00:39:05;;;;;;;25.17;16.65;;;;;;;2.98;60.10;101883.91;5009882;28;20034;-74
2022/03/04 00:41:31;;;;;;;24.05;16.63;;;;;;;2.94;60.35;101887.47;5011114;28;20053;-74
2022/03/04 00:43:56;;;;;;;25.35;18.20;;;;;;;2.92;60.17;101885.81;5010766;28;20445;-74
2022/03/04 00:46:22;;;;;;;26.13;17.73;;;;;;;2.88;60.76;101890.22;5021199;28;20120;-74
2022/03/04 00:48:47;;;;;;;26.13;17.80;;;;;;;2.85;60.94;101900.72;5010733;28;20434;-74
2022/03/04 00:51:13;;;;;;;27.52;17.48;;;;;;;2.81;61.05;101896.47;5010846;28;20187;-74
2022/03/04 00:53:41;;;;;;;25.92;17.60;;;;;;;2.77;61.24;101900.88;5004934;28;20030;-74
2022/03/04 00:56:07;;;;;;;26.52;18.05;;;;;;;2.74;61.45;101893.16;5010645;28;20026;-74
2022/03/04 00:58:34;;;;;;;26.17;18.55;;;;;;;2.70;61.22;101882.88;5010751;28;20018;-74
2022/03/04 01:00:59;;;;;;;27.42;18.38;;;;;;;2.70;61.69;101890.66;5009239;28;20034;-74
2022/03/04 01:03:24;;;;;;;28.45;18.67;;;;;;;2.66;61.86;101889.03;5009845;28;20510;-74
2022/03/04 01:05:50;;;;;;;27.05;19.15;;;;;;;2.65;62.75;101895.13;5010673;28;20037;-73
2022/03/04 01:08:15;;;;;;;28.00;18.27;;;;;;;2.60;61.43;101894.38;5007897;28;20025;-74
2022/03/04 01:10:41;;;;;;;27.52;18.83;;;;;;;2.56;61.53;101905.75;5009309;28;20471;-74
2022/03/04 01:13:06;;;;;;;25.50;18.17;;;;;;;2.51;61.97;101901.50;5009531;28;20041;-73
2022/03/04 01:15:31;;;;;;;26.23;18.63;;;;;;;2.45;62.27;101899.06;5008119;28;20026;-74
2022/03/04 01:17:57;;;;;;;26.13;18.48;;;;;;;2.43;63.12;101895.66;5009161;28;20040;-74
2022/03/04 01:20:23;;;;;;;28.63;19.27;;;;;;;2.40;62.28;101895.72;5009845;28;20022;-74
2022/03/04 01:22:49;;;;;;;26.98;18.52;;;;;;;2.38;62.33;101897.47;5007954;28;20168;-74
2022/03/04 01:25:15;;;;;;;28.27;19.10;;;;;;;2.36;62.61;101888.00;5009236;28;20491;-73
2022/03/04 01:27:40;;;;;;;25.23;18.15;;;;;;;2.28;62.80;101893.38;5006593;28;20030;-74
2022/03/04 01:30:08;;;;;;;28.35;17.38;;;;;;;2.24;62.52;101894.34;4989590;28;20026;-74
2022/03/04 01:32:34;;;;;;;30.85;19.73;;;;;;;2.20;63.39;101895.31;5007455;28;20567;-74
2022/03/04 01:34:59;;;;;;;29.85;19.38;;;;;;;2.17;63.51;101885.00;5009533;28;20038;-74
2022/03/04 01:37:25;;;;;;;29.85;19.75;;;;;;;2.14;63.62;101879.88;5007411;28;20044;-73
2022/03/04 01:39:50;;;;;;;28.85;18.90;;;;;;;2.12;63.98;101884.25;5008259;28;20065;-74
2022/03/04 01:42:16;;;;;;;29.02;19.13;;;;;;;2.13;63.82;101888.56;5009283;28;20049;-74
2022/03/04 01:44:41;;;;;;;29.42;19.73;;;;;;;2.09;64.17;101877.38;5009854;28;20036;-74
2022/03/04 01:47:07;;;;;;;29.17;19.63;;;;;;;2.02;63.16;101877.56;5028169;28;20033;-73
2022/03/04 01:49:32;;;;;;;28.98;19.42;;;;;;;1.93;63.88;101875.16;5029243;28;20025;-74
2022/03/04 01:51:58;;;;;;;29.75;19.77;;;;;;;1.87;64.25;101874.41;5028457;28;20478;-74
2022/03/04 01:54:24;;;;;;;27.65;19.05;;;;;;;1.83;64.64;101870.16;5045013;28;20115;-74
2022/03/04 01:56:50;;;;;;;31.10;20.17;;;;;;;1.80;64.10;101875.41;5029045;28;20021;-74
2022/03/04 01:59:15;;;;;;;31.10;19.67;;;;;;;1.72;65.21;101872.13;5012542;28;20029;-74
2022/03/04 02:01:41;;;;;;;29.58;19.65;;;;;;;1.70;65.13;101879.09;5009630;28;20498;-74
2022/03/04 02:04:06;;;;;;;32.17;20.02;;;;;;;1.65;65.58;101880.94;5008836;28;20021;-74
2022/03/04 02:06:32;;;;;;;30.55;20.27;;;;;;;1.60;65.24;101885.34;5009933;28;20075;-74
2022/03/04 02:08:57;;;;;;;28.95;19.27;;;;;;;1.61;65.74;101888.81;5007844;28;20036;-73
2022/03/04 02:11:22;;;;;;;28.35;19.42;;;;;;;1.61;65.97;101886.22;5004576;28;20034;-74
2022/03/04 02:13:47;;;;;;;27.75;19.60;;;;;;;1.58;66.50;101889.69;5011164;28;20017;-74
2022/03/04 02:16:25;;;;;;;30.50;20.17;;;;;;;1.60;65.62;101887.94;5013233;28;20041;-74
2022/03/04 02:18:51;;;;;;;30.58;20.90;;;;;;;1.57;66.42;101888.00;5012490;28;20053;-75
2022/03/04 02:21:20;;;;;;;31.50;20.60;;;;;;;1.56;66.30;101886.28;5013002;28;20026;-74
2022/03/04 02:23:46;;;;;;;28.23;19.23;;;;;;;1.54;66.42;101886.31;5012907;28;20049;-74
2022/03/04 02:26:11;;;;;;;29.85;20.27;;;;;;;1.53;65.81;101887.19;5012190;28;20034;-75
2022/03/04 02:28:37;;;;;;;30.63;20.00;;;;;;;1.53;66.41;101886.34;5012632;28;20018;-74
2022/03/04 02:31:03;;;;;;;30.90;20.00;;;;;;;1.51;66.28;101877.75;5013018;28;20025;-74
2022/03/04 02:33:28;;;;;;;27.00;19.27;;;;;;;1.50;66.24;101876.03;5012033;28;20103;-74
2022/03/04 02:35:53;;;;;;;29.63;20.98;;;;;;;1.45;66.71;101873.53;5012420;28;20060;-74
2022/03/04 02:38:19;;;;;;;30.35;20.52;;;;;;;1.46;66.40;101874.38;5012492;28;20422;-74
2022/03/04 02:40:44;;;;;;;32.13;20.80;;;;;;;1.43;66.61;101869.28;5012757;28;20021;-74
2022/03/04 02:43:09;;;;;;;28.30;20.40;;;;;;;1.40;66.73;101866.75;5009344;28;20026;-74
2022/03/04 02:45:35;;;;;;;31.02;21.05;;;;;;;1.39;66.31;101872.81;5016882;28;20013;-74
2022/03/04 02:48:01;;;;;;;32.42;20.88;;;;;;;1.38;66.42;101868.50;5047912;28;20065;-74
2022/03/04 02:50:26;;;;;;;32.70;21.88;;;;;;;1.36;66.69;101867.69;5033077;28;20061;-75
2022/03/04 02:52:52;;;;;;;30.48;20.70;;;;;;;1.34;66.81;101864.28;5047750;28;20055;-74
2022/03/04 02:55:17;;;;;;;31.17;21.15;;;;;;;1.33;66.67;101859.97;5048051;28;20025;-74
2022/03/04 02:57:45;;;;;;;32.28;21.23;;;;;;;1.31;66.94;101861.75;5028473;28;20045;-74
2022/03/04 03:00:12;;;;;;;31.98;21.15;;;;;;;1.29;66.64;101864.34;5009920;28;20026;-74
2022/03/04 03:02:37;;;;;;;32.60;21.50;;;;;;;1.29;67.02;101860.91;5024618;28;20028;-74
2022/03/04 03:05:03;;;;;;;30.95;21.50;;;;;;;1.28;67.20;101866.97;5022761;28;20402;-74
2022/03/04 03:07:29;;;;;;;31.67;21.17;;;;;;;1.25;66.62;101871.34;5011524;28;20544;-74
2022/03/04 03:09:55;;;;;;;32.95;21.85;;;;;;;1.24;67.24;101866.19;5012619;28;20088;-74
2022/03/04 03:12:20;;;;;;;33.60;21.00;;;;;;;1.22;67.34;101871.41;5011019;28;20308;-74
2022/03/04 03:14:47;;;;;;;33.63;21.77;;;;;;;1.20;66.98;101864.50;5006671;28;20553;-75
2022/03/04 03:17:12;;;;;;;33.72;21.73;;;;;;;1.18;67.67;101869.72;5009362;28;20040;-74
2022/03/04 03:19:37;;;;;;;31.65;21.20;;;;;;;1.15;67.73;101856.81;5011748;28;20089;-75
2022/03/04 03:22:03;;;;;;;29.73;20.77;;;;;;;1.15;67.46;101858.56;5009922;28;20430;-75
2022/03/04 03:24:29;;;;;;;32.50;21.38;;;;;;;1.13;67.56;101862.91;5026405;28;20105;-74
2022/03/04 03:26:54;;;;;;;32.67;21.52;;;;;;;1.11;67.62;101857.78;5011904;28;20017;-74
2022/03/04 03:29:19;;;;;;;31.70;21.38;;;;;;;1.09;67.24;101863.88;5011285;28;20173;-75
2022/03/04 03:31:44;;;;;;;32.22;21.83;;;;;;;1.08;67.25;101867.34;5026128;28;20029;-75
2022/03/04 03:34:10;;;;;;;30.42;21.27;;;;;;;1.05;67.55;101868.25;4999175;28;20031;-75
2022/03/04 03:36:36;;;;;;;33.35;21.42;;;;;;;1.04;67.29;101876.91;4991387;28;20050;-74
2022/03/04 03:39:03;;;;;;;31.98;21.42;;;;;;;1.03;67.93;101874.34;4992149;28;20026;-74
2022/03/04 03:41:28;;;;;;;35.28;21.73;;;;;;;1.02;67.43;101878.66;4992455;28;20034;-75
2022/03/04 03:43:53;;;;;;;33.00;22.10;;;;;;;1.02;67.25;101876.09;4991369;28;20101;-75
2022/03/04 03:46:19;;;;;;;34.70;21.15;;;;;;;1.01;67.47;101882.16;5018383;28;20378;-75
2022/03/04 03:48:44;;;;;;;32.85;21.65;;;;;;;1.00;67.89;101877.84;5031703;28;20021;-75
2022/03/04 03:51:10;;;;;;;33.47;22.50;;;;;;;0.98;67.63;101871.84;5046585;28;20030;-75
2022/03/04 03:53:35;;;;;;;34.55;22.02;;;;;;;0.97;67.32;101872.72;5047296;28;20389;-74
2022/03/04 03:56:01;;;;;;;33.97;21.55;;;;;;;0.96;68.19;101873.59;5030572;28;20060;-75
2022/03/04 03:58:26;;;;;;;35.47;22.40;;;;;;;0.92;68.07;101871.94;5019899;28;20044;-75
2022/03/04 04:00:52;;;;;;;32.58;21.67;;;;;;;0.91;68.05;101878.88;5010380;28;20065;-74
2022/03/04 04:03:17;;;;;;;31.85;21.58;;;;;;;0.90;67.64;101882.34;5010933;28;20022;-75
2022/03/04 04:05:42;;;;;;;34.50;22.17;;;;;;;0.88;68.39;101885.84;5011433;28;20793;-74
2022/03/04 04:08:08;;;;;;;34.92;22.15;;;;;;;0.87;68.20;101886.72;5011589;28;20029;-74
2022/03/04 04:10:33;;;;;;;34.85;22.20;;;;;;;0.85;68.03;101886.75;5010966;28;20367;-75
2022/03/04 04:12:58;;;;;;;37.15;22.85;;;;;;;0.82;68.52;101892.00;5011601;28;20113;-75
2022/03/04 04:15:24;;;;;;;36.78;22.50;;;;;;;0.81;68.05;101884.25;5004684;28;20498;-75
2022/03/04 04:17:49;;;;;;;33.63;22.02;;;;;;;0.79;68.70;101886.81;5010554;28;20063;-75
2022/03/04 04:20:14;;;;;;;33.90;22.20;;;;;;;0.78;68.43;101899.81;5010708;28;20022;-75
2022/03/04 04:22:40;;;;;;;35.83;22.63;;;;;;;0.76;68.10;101898.97;5010811;28;20486;-75
2022/03/04 04:25:06;;;;;;;34.45;22.35;;;;;;;0.75;68.87;101897.28;5010100;28;20022;-75
2022/03/04 04:27:31;;;;;;;32.70;22.75;;;;;;;0.73;68.54;101891.25;5009916;28;20486;-75
2022/03/04 04:29:57;;;;;;;35.38;22.27;;;;;;;0.72;68.83;101889.56;5017179;28;20037;-75
2022/03/04 04:32:22;;;;;;;32.50;21.85;;;;;;;0.71;68.79;101898.22;5008524;28;20514;-75
2022/03/04 04:34:47;;;;;;;34.00;22.70;;;;;;;0.70;68.97;101896.50;5009764;28;20056;-75
2022/03/04 04:37:13;;;;;;;34.22;22.70;;;;;;;0.72;68.44;101899.91;5009023;28;20467;-75
2022/03/04 04:39:38;;;;;;;33.25;22.92;;;;;;;0.70;68.81;101906.84;5009815;28;20054;-75
2022/03/04 04:42:04;;;;;;;36.42;22.02;;;;;;;0.68;69.15;101899.13;5010241;28;20025;-75
2022/03/04 04:44:30;;;;;;;33.03;22.40;;;;;;;0.67;69.22;101905.16;5010744;28;20052;-75
2022/03/04 04:46:56;;;;;;;35.10;22.35;;;;;;;0.67;68.77;101906.91;5028308;28;20369;-75
2022/03/04 04:49:21;;;;;;;37.00;23.70;;;;;;;0.67;68.79;101906.91;5016700;28;20037;-74
2022/03/04 04:51:46;;;;;;;36.92;23.08;;;;;;;0.67;69.06;101909.50;5010764;28;20474;-74
2022/03/04 04:54:12;;;;;;;35.85;22.60;;;;;;;0.65;68.78;101914.69;5010299;28;20056;-75
2022/03/04 04:56:37;;;;;;;34.17;23.63;;;;;;;0.63;68.77;101901.78;5008710;28;20049;-74
2022/03/04 04:59:02;;;;;;;36.10;22.98;;;;;;;0.63;69.70;101912.13;5010429;28;20017;-75
2022/03/04 05:01:28;;;;;;;35.42;22.92;;;;;;;0.61;69.00;101907.84;5006015;28;20045;-74
2022/03/04 05:03:53;;;;;;;35.47;23.50;;;;;;;0.59;69.06;101900.13;5016057;28;20033;-74
2022/03/04 05:06:19;;;;;;;38.72;23.20;;;;;;;0.56;69.27;101905.34;5027942;28;20033;-74
2022/03/04 05:08:44;;;;;;;35.72;23.60;;;;;;;0.55;69.39;101898.47;5028945;28;20021;-74
2022/03/04 05:11:09;;;;;;;35.50;23.05;;;;;;;0.52;69.24;101888.16;5029384;28;20116;-74
2022/03/04 05:13:34;;;;;;;36.10;23.70;;;;;;;0.51;69.55;101899.38;5029314;28;20025;-74
2022/03/04 05:16:00;;;;;;;35.67;23.40;;;;;;;0.50;69.24;101897.69;5029392;28;20385;-74
2022/03/04 05:18:26;;;;;;;34.88;23.25;;;;;;;0.48;69.78;101896.00;5029929;28;20108;-74
2022/03/04 05:20:51;;;;;;;35.63;22.90;;;;;;;0.48;69.27;101899.44;5003984;28;20056;-74
2022/03/04 05:23:58;;;;;;;36.40;23.73;;;;;;;0.47;69.63;101910.69;5009955;28;20097;-74
2022/03/04 05:26:02;;;;;;;37.30;23.00;;;;;;;0.45;69.94;101902.06;5009644;28;20095;-74
2022/03/04 05:28:27;;;;;;;35.40;22.88;;;;;;;0.45;69.45;101909.84;5009009;28;20018;-74
2022/03/04 05:30:53;;;;;;;36.92;23.58;;;;;;;0.45;70.02;101904.66;5007814;28;20121;-74
2022/03/04 05:33:19;;;;;;;36.45;24.05;;;;;;;0.42;69.84;101904.72;5009989;28;20026;-74
2022/03/04 05:35:44;;;;;;;38.95;22.92;;;;;;;0.41;70.18;101908.19;5003871;28;20104;-75
2022/03/04 05:38:09;;;;;;;34.45;22.65;;;;;;;0.41;69.95;101905.59;5009418;28;20034;-75
2022/03/04 05:40:35;;;;;;;33.33;22.73;;;;;;;0.37;70.20;101914.25;5010136;28;20029;-75
2022/03/04 05:43:02;;;;;;;35.58;23.50;;;;;;;0.37;69.89;101918.56;5008098;28;20029;-74
2022/03/04 05:45:27;;;;;;;38.50;23.60;;;;;;;0.34;70.31;101916.88;5016028;28;20370;-75
2022/03/04 05:47:53;;;;;;;35.72;23.10;;;;;;;0.32;70.19;101923.81;5029403;28;20037;-74
2022/03/04 05:50:18;;;;;;;37.92;24.17;;;;;;;0.30;69.83;101929.03;5029189;28;20029;-75
2022/03/04 05:52:44;;;;;;;38.30;23.65;;;;;;;0.29;70.25;101931.63;5029637;28;20018;-75
2022/03/04 05:55:09;;;;;;;36.70;23.52;;;;;;;0.24;70.06;101928.25;5027514;28;20018;-74
2022/03/04 05:57:34;;;;;;;35.20;23.25;;;;;;;0.16;69.68;101930.09;5009249;28;20017;-74
2022/03/04 06:00:04;;;;;;;37.35;22.75;;;;;;;0.14;70.52;101926.69;5009900;28;20018;-75
2022/03/04 06:02:31;;;;;;;36.00;23.38;;;;;;;0.09;70.00;101938.81;5008706;28;20402;-74
2022/03/04 06:04:56;;;;;;;37.15;24.10;;;;;;;0.05;70.26;101938.00;5009750;28;20030;-74
2022/03/04 06:07:21;;;;;;;35.65;24.08;;;;;;;0.03;70.64;101949.25;5008600;28;20037;-75
2022/03/04 06:09:47;;;;;;;35.60;23.60;;;;;;;0.01;71.18;101951.00;5009003;28;20104;-75
2022/03/04 06:12:12;;;;;;;37.83;24.27;;;;;;;-0.02;71.16;101944.97;5009365;28;20478;-74
2022/03/04 06:14:37;;;;;;;33.42;23.10;;;;;;;-0.04;70.86;101944.13;5008118;28;20021;-74
2022/03/04 06:17:04;;;;;;;39.63;24.70;;;;;;;-0.05;71.32;101947.59;5008677;28;20386;-74
2022/03/04 06:19:29;;;;;;;38.47;23.10;;;;;;;-0.08;71.71;101950.22;5009674;28;20025;-74
2022/03/04 06:21:54;;;;;;;37.33;23.70;;;;;;;-0.08;71.25;101951.94;5009174;28;20026;-74
2022/03/04 06:24:20;;;;;;;36.70;24.38;;;;;;;-0.09;71.46;101951.09;5008617;28;20022;-74
2022/03/04 06:26:45;;;;;;;39.25;24.52;;;;;;;-0.09;71.95;101960.59;5027133;28;20025;-74
2022/03/04 06:29:10;;;;;;;42.13;24.38;;;;;;;-0.11;71.65;101960.59;5038369;28;20025;-74
2022/03/04 06:31:36;;;;;;;40.35;25.23;;;;;;;-0.11;72.31;101958.03;5008316;28;20030;-74
2022/03/04 06:34:02;;;;;;;37.05;24.33;;;;;;;-0.11;71.99;101963.19;5030832;28;20072;-74
2022/03/04 06:36:27;;;;;;;41.33;24.58;;;;;;;-0.13;71.75;101961.50;5008519;28;20073;-73
2022/03/04 06:38:52;;;;;;;42.58;24.83;;;;;;;-0.13;72.31;101958.91;5012967;28;20037;-75
2022/03/04 06:41:18;;;;;;;40.45;24.08;;;;;;;-0.13;72.18;101964.94;5007518;28;20488;-75
2022/03/04 06:43:43;;;;;;;41.60;25.48;;;;;;;-0.15;71.85;101961.53;5017717;28;20057;-75
2022/03/04 06:46:09;;;;;;;39.85;25.50;;;;;;;-0.17;72.03;101963.28;5015689;28;20104;-75
2022/03/04 06:48:35;;;;;;;41.28;25.00;;;;;;;-0.16;72.37;101964.97;5008961;28;20049;-75
2022/03/04 06:51:00;;;;;;;38.72;25.00;;;;;;;-0.18;72.48;101969.31;5005351;28;20116;-74
2022/03/04 06:53:26;;;;;;;38.50;23.95;;;;;;;-0.19;72.95;101972.78;4997613;28;20474;-75
2022/03/04 06:55:52;;;;;;;40.35;25.02;;;;;;;-0.23;72.34;101978.88;4990847;28;20510;-75
2022/03/04 06:58:18;;;;;;;38.42;24.75;;;;;;;-0.24;72.71;101982.31;4990565;28;20026;-75
2022/03/04 07:00:44;;;;;;;40.67;25.23;;;;;;;-0.26;72.90;101986.66;5004857;28;20109;-75
2022/03/04 07:03:10;;;;;;;41.92;25.67;;;;;;;-0.26;73.06;101988.38;5007037;28;20022;-75
2022/03/04 07:05:37;;;;;;;39.85;25.70;;;;;;;-0.24;73.44;101995.25;5012111;28;20075;-74
2022/03/04 07:08:04;;;;;;;44.88;26.50;;;;;;;-0.23;73.43;101994.38;5010529;28;20471;-75
2022/03/04 07:10:29;;;;;;;42.65;27.00;;;;;;;-0.21;73.56;102002.97;5012797;28;20029;-74
2022/03/04 07:12:54;;;;;;;43.08;25.88;;;;;;;-0.18;73.27;102002.94;5008913;28;20014;-74
2022/03/04 07:15:20;;;;;;;46.67;27.27;;;;;;;-0.16;73.99;102008.94;5012094;28;20914;-74
2022/03/04 07:17:47;;;;;;;43.70;26.55;;;;;;;-0.12;73.67;102012.34;5011167;28;20397;-74
2022/03/04 07:20:12;;;;;;;41.13;26.00;;;;;;;-0.08;73.84;102016.63;5010706;28;20055;-74
2022/03/04 07:22:39;;;;;;;41.38;26.10;;;;;;;-0.04;74.10;102021.75;5010948;28;20029;-75
2022/03/04 07:25:06;;;;;;;47.03;26.70;;;;;;;0.01;74.05;102019.13;5011341;28;20034;-75
2022/03/04 07:27:34;;;;;;;45.40;26.42;;;;;;;0.06;73.71;102017.34;5010937;28;20022;-75
2022/03/04 07:30:00;;;;;;;44.05;26.63;;;;;;;0.13;73.81;102015.53;5011096;28;20026;-75
2022/03/04 07:32:26;;;;;;;46.38;26.50;;;;;;;0.21;73.82;102011.13;5009880;28;20025;-74
2022/03/04 07:34:51;;;;;;;41.95;25.63;;;;;;;0.26;72.66;102022.25;5010845;28;20057;-74
2022/03/04 07:37:16;;;;;;;47.65;26.02;;;;;;;0.33;72.91;102016.13;5011294;28;20034;-74
2022/03/04 07:39:42;;;;;;;50.63;26.20;;;;;;;0.40;72.33;102010.03;5011470;28;20113;-75
2022/03/04 07:42:07;;;;;;;42.72;24.92;;;;;;;0.47;72.16;102014.22;5010781;28;20378;-75
2022/03/04 07:44:33;;;;;;;37.42;24.38;;;;;;;0.56;71.62;102014.09;5011462;28;20422;-75
2022/03/04 07:46:58;;;;;;;35.67;24.00;;;;;;;0.63;71.32;102005.38;5011917;28;20164;-74
2022/03/04 07:49:23;;;;;;;39.95;23.98;;;;;;;0.71;71.18;102001.81;5010873;28;20025;-74
2022/03/04 07:51:49;;;;;;;44.00;25.67;;;;;;;0.80;70.79;102012.03;5011638;28;20022;-74
2022/03/04 07:54:14;;;;;;;46.13;25.95;;;;;;;0.88;71.03;102007.59;5011914;28;20363;-74
2022/03/04 07:56:39;;;;;;;41.90;25.15;;;;;;;0.96;70.74;102013.53;5011186;28;20026;-76
2022/03/04 07:59:05;;;;;;;36.40;24.20;;;;;;;1.02;69.95;102012.56;5011300;28;20494;-75
2022/03/04 08:01:30;;;;;;;38.20;24.27;;;;;;;1.10;69.66;102021.91;5006021;28;20022;-75
2022/03/04 08:03:55;;;;;;;39.10;24.80;;;;;;;1.17;69.73;102018.34;5010278;28;20470;-74
2022/03/04 08:06:21;;;;;;;42.58;24.92;;;;;;;1.23;70.07;102010.50;5011817;28;20087;-74
2022/03/04 08:08:46;;;;;;;41.47;23.77;;;;;;;1.31;69.66;102012.09;5010999;28;20095;-74
2022/03/04 08:11:11;;;;;;;41.80;25.02;;;;;;;1.41;69.28;102019.69;5009787;28;20025;-74
2022/03/04 08:13:36;;;;;;;37.33;24.15;;;;;;;1.49;69.44;102020.41;5011138;28;20169;-75
2022/03/04 08:16:03;;;;;;;39.53;24.70;;;;;;;1.57;68.94;102022.84;5010910;28;20362;-75
2022/03/04 08:18:28;;;;;;;42.17;24.85;;;;;;;1.65;69.00;102014.97;5025361;28;20482;-74
2022/03/04 08:20:54;;;;;;;39.22;24.63;;;;;;;1.73;68.41;102019.13;5008653;28;20041;-75
2022/03/04 08:23:19;;;;;;;37.95;23.33;;;;;;;1.80;68.20;102020.72;5010768;28;20033;-74
2022/03/04 08:25:44;;;;;;;38.83;24.08;;;;;;;1.89;68.20;102017.94;5009693;28;20142;-74
2022/03/04 08:28:10;;;;;;;36.28;23.50;;;;;;;1.97;67.15;102016.94;5009429;28;20453;-74
2022/03/04 08:30:38;;;;;;;37.33;23.90;;;;;;;2.05;67.65;102020.25;5010510;28;20450;-75
2022/03/04 08:33:04;;;;;;;39.58;24.20;;;;;;;2.13;66.90;102029.59;5009221;28;20040;-74
2022/03/04 08:35:29;;;;;;;38.13;23.52;;;;;;;2.23;66.62;102030.25;5010653;28;20128;-74
2022/03/04 08:37:55;;;;;;;35.38;23.35;;;;;;;2.29;66.18;102031.88;5009873;28;20109;-74
2022/03/04 08:40:21;;;;;;;36.42;23.02;;;;;;;2.39;66.49;102026.44;5007926;28;20053;-75
2022/03/04 08:42:47;;;;;;;36.63;23.05;;;;;;;2.47;65.97;102032.34;5025886;28;20036;-75
2022/03/04 08:45:13;;;;;;;37.38;23.65;;;;;;;2.57;64.87;102039.94;5009404;28;20060;-75
2022/03/04 08:47:41;;;;;;;37.72;24.10;;;;;;;2.65;64.25;102032.81;5008210;28;20474;-74
2022/03/04 08:50:07;;;;;;;37.95;23.13;;;;;;;2.73;64.76;102039.56;5018325;28;20497;-74
2022/03/04 08:52:32;;;;;;;36.80;23.35;;;;;;;2.82;65.21;102047.16;5020084;28;20064;-74
2022/03/04 08:54:57;;;;;;;39.85;22.55;;;;;;;2.89;64.27;102047.03;5030233;28;20393;-74
2022/03/04 08:57:25;;;;;;;35.03;22.67;;;;;;;2.97;63.87;102050.31;5012781;28;20021;-74
2022/03/04 08:59:50;;;;;;;35.28;22.67;;;;;;;3.05;63.40;102049.22;5009442;28;20018;-75
2022/03/04 09:02:16;;;;;;;34.97;22.45;;;;;;;3.13;63.25;102052.50;5009743;28;20492;-75
2022/03/04 09:04:41;;;;;;;38.28;23.63;;;;;;;3.21;62.64;102049.75;5005109;28;20046;-74
2022/03/04 09:07:07;;;;;;;34.45;22.13;;;;;;;3.29;62.50;102044.34;5008528;28;20069;-74
2022/03/04 09:09:33;;;;;;;34.35;22.55;;;;;;;3.37;61.97;102045.84;5025656;28;20021;-75
2022/03/04 09:11:59;;;;;;;37.80;22.85;;;;;;;3.46;62.44;102042.16;5009151;28;20103;-75
2022/03/04 09:14:24;;;;;;;35.45;22.35;;;;;;;3.54;61.82;102042.81;5007192;28;20478;-75
2022/03/04 09:16:51;;;;;;;35.30;22.38;;;;;;;3.62;61.38;102046.09;5005790;28;20038;-75
2022/03/04 09:19:16;;;;;;;35.60;22.48;;;;;;;3.70;61.58;102046.75;5002278;28;20029;-75
2022/03/04 09:21:41;;;;;;;37.97;22.10;;;;;;;3.77;60.65;102050.91;5012359;28;20040;-74
2022/03/04 09:24:07;;;;;;;32.53;21.50;;;;;;;3.87;61.44;102043.69;5010642;28;20479;-74
2022/03/04 09:26:33;;;;;;;33.38;21.80;;;;;;;3.95;61.50;102038.28;5014143;28;20112;-74
2022/03/04 09:28:58;;;;;;;32.50;21.85;;;;;;;4.05;61.09;102034.53;5009869;28;20026;-74
2022/03/04 09:31:24;;;;;;;35.65;22.02;;;;;;;4.15;59.40;102030.78;5015167;28;20026;-75
2022/03/04 09:33:49;;;;;;;37.60;22.63;;;;;;;4.24;59.75;102030.50;5008318;28;20018;-74
2022/03/04 09:36:15;;;;;;;34.03;22.25;;;;;;;4.33;59.19;102035.44;5010576;28;20580;-74
2022/03/04 09:38:41;;;;;;;35.75;22.65;;;;;;;4.40;59.70;102025.69;5029647;28;20036;-75
2022/03/04 09:41:08;;;;;;;38.05;22.77;;;;;;;4.49;58.99;102019.38;5004572;28;20035;-75
2022/03/04 09:43:34;;;;;;;33.72;22.63;;;;;;;4.58;59.18;102014.75;5010079;28;20034;-74
2022/03/04 09:46:00;;;;;;;35.13;23.17;;;;;;;4.66;58.72;102027.53;5011817;28;20109;-75
2022/03/04 09:48:26;;;;;;;32.78;21.77;;;;;;;4.74;58.59;102017.72;5012826;28;20032;-75
2022/03/04 09:50:51;;;;;;;33.70;21.90;;;;;;;4.85;59.08;102027.84;5003173;28;20251;-75
2022/03/04 09:53:17;;;;;;;37.30;22.88;;;;;;;4.94;57.66;102025.78;5008030;28;20537;-74
2022/03/04 09:55:43;;;;;;;33.20;21.92;;;;;;;5.01;58.12;102027.28;4999435;28;20030;-75
2022/03/04 09:58:14;;;;;;;33.10;22.50;;;;;;;5.13;57.64;102027.78;4997404;28;20026;-75
2022/03/04 10:00:42;;;;;;;32.90;22.23;;;;;;;5.25;57.27;102027.41;5005079;28;20033;-75
2022/03/04 10:03:19;;;;;;;31.83;21.90;;;;;;;5.35;58.44;102024.44;5015972;28;20025;-75
2022/03/04 10:06:11;;;;;;;36.85;21.52;;;;;;;5.46;58.24;102028.44;5007901;28;20554;-75
2022/03/04 10:08:42;;;;;;;34.53;22.63;;;;;;;5.58;57.35;102014.97;4989388;28;20046;-73
2022/03/04 10:11:08;;;;;;;32.08;22.02;;;;;;;5.71;56.69;102023.25;5001976;28;20038;-74
2022/03/04 10:13:43;;;;;;;34.00;22.15;;;;;;;5.83;56.55;102014.97;5009216;28;20108;-75
2022/03/04 10:16:10;;;;;;;33.60;22.48;;;;;;;5.95;55.83;102019.78;5023700;28;20441;-75
2022/03/04 10:18:35;;;;;;;32.38;21.85;;;;;;;6.07;55.98;102024.59;5015564;28;20104;-75
2022/03/04 10:21:03;;;;;;;32.55;21.75;;;;;;;6.20;55.93;102020.63;5029296;28;20029;-75
2022/03/04 10:23:30;;;;;;;31.90;22.58;;;;;;;6.28;54.44;102023.78;5029051;28;20032;-74
2022/03/04 10:25:58;;;;;;;31.15;21.63;;;;;;;6.40;55.34;102037.31;5029335;28;20025;-74
2022/03/04 10:28:28;;;;;;;34.75;22.88;;;;;;;6.51;55.02;102029.94;5029539;28;20056;-76
2022/03/04 10:30:55;;;;;;;33.08;22.20;;;;;;;6.62;54.85;102038.22;5028408;28;20555;-74
2022/03/04 10:33:25;;;;;;;31.00;21.38;;;;;;;6.75;54.86;102028.97;5029274;28;20398;-75
2022/03/04 10:36:06;;;;;;;32.67;22.00;;;;;;;6.87;54.17;102030.28;5033059;28;20052;-75
2022/03/04 10:38:32;;;;;;;34.63;22.98;;;;;;;7.04;54.57;102026.97;5010039;28;20034;-75
2022/03/04 10:40:57;;;;;;;32.72;22.30;;;;;;;7.19;54.81;102023.72;5013153;28;20032;-75
2022/03/04 10:43:31;;;;;;;31.83;22.27;;;;;;;7.37;55.36;102030.00;5013164;28;20466;-75
2022/03/04 10:46:04;;;;;;;33.90;21.75;;;;;;;7.51;53.82;102020.63;5012409;28;20033;-75
2022/03/04 10:48:31;;;;;;;31.30;20.77;;;;;;;7.65;53.64;102012.19;5012345;28;20022;-74
2022/03/04 10:50:58;;;;;;;30.33;20.52;;;;;;;7.88;52.61;102024.28;5010788;28;20018;-75
2022/03/04 10:53:27;;;;;;;29.42;20.50;;;;;;;8.07;52.26;102014.72;5024461;28;20416;-75
2022/03/04 10:55:56;;;;;;;31.48;20.67;;;;;;;8.27;51.82;102005.06;5032716;28;20025;-75
2022/03/04 10:58:24;;;;;;;31.63;21.17;;;;;;;8.45;50.74;102004.28;5038844;28;20449;-75
2022/03/04 11:00:58;;;;;;;29.95;20.15;;;;;;;8.72;50.35;102002.97;5012594;28;20079;-75
2022/03/04 11:03:30;;;;;;;27.50;20.15;;;;;;;8.86;49.60;102004.09;5009849;28;20029;-75
2022/03/04 11:06:03;;;;;;;31.55;19.95;;;;;;;8.98;48.11;102006.13;5010073;28;20025;-75
2022/03/04 11:08:29;;;;;;;26.50;19.17;;;;;;;9.11;48.49;102004.59;5011562;28;20025;-75
2022/03/04 11:10:56;;;;;;;28.58;19.42;;;;;;;9.23;47.61;102008.41;5010729;28;20026;-75